sensor_id;sensor_type;location;lat;lon;timestamp;P1;durP1;ratioP1;P2;durP2;ratioP2
77206;SDS011;66190;50.708;7.906;2022-12-20T00:02:09;19.90;;;9.37;;
77206;SDS011;66190;50.708;7.906;2022-12-20T00:04:35;18.33;;;9.55;;
77206;SDS011;66190;50.708;7.906;2022-12-20T00:07:01;17.63;;;9.15;;
77206;SDS011;66190;50.708;7.906;2022-12-20T00:09:26;20.10;;;9.73;;
77206;SDS011;66190;50.708;7.906;2022-12-20T00:11:52;20.05;;;9.60;;
77206;SDS011;66190;50.708;7.906;2022-12-20T00:14:17;21.77;;;10.13;;
77206;SDS011;66190;50.708;7.906;2022-12-20T00:16:44;19.27;;;10.07;;
77206;SDS011;66190;50.708;7.906;2022-12-20T00:19:10;22.07;;;10.33;;
77206;SDS011;66190;50.708;7.906;2022-12-20T00:21:36;22.77;;;11.10;;
77206;SDS011;66190;50.708;7.906;2022-12-20T00:24:02;23.60;;;11.95;;
77206;SDS011;66190;50.708;7.906;2022-12-20T00:26:30;23.80;;;12.00;;
77206;SDS011;66190;50.708;7.906;2022-12-20T00:28:57;24.77;;;11.93;;
77206;SDS011;66190;50.708;7.906;2022-12-20T00:31:24;23.48;;;11.75;;
77206;SDS011;66190;50.708;7.906;2022-12-20T00:33:52;23.48;;;11.70;;
77206;SDS011;66190;50.708;7.906;2022-12-20T00:36:19;21.45;;;10.70;;
77206;SDS011;66190;50.708;7.906;2022-12-20T00:38:47;24.27;;;11.05;;
77206;SDS011;66190;50.708;7.906;2022-12-20T00:41:15;21.77;;;11.27;;
77206;SDS011;66190;50.708;7.906;2022-12-20T00:43:44;22.38;;;11.07;;
77206;SDS011;66190;50.708;7.906;2022-12-20T00:46:11;22.83;;;11.13;;
77206;SDS011;66190;50.708;7.906;2022-12-20T00:48:37;22.98;;;10.93;;
77206;SDS011;66190;50.708;7.906;2022-12-20T00:51:04;23.87;;;11.13;;
77206;SDS011;66190;50.708;7.906;2022-12-20T00:53:31;24.27;;;11.60;;
77206;SDS011;66190;50.708;7.906;2022-12-20T00:55:57;24.45;;;10.60;;
77206;SDS011;66190;50.708;7.906;2022-12-20T00:58:24;24.30;;;11.35;;
77206;SDS011;66190;50.708;7.906;2022-12-20T01:00:50;26.90;;;12.50;;
77206;SDS011;66190;50.708;7.906;2022-12-20T01:03:17;26.10;;;12.13;;
77206;SDS011;66190;50.708;7.906;2022-12-20T01:05:52;26.63;;;11.73;;
77206;SDS011;66190;50.708;7.906;2022-12-20T01:08:20;21.20;;;11.30;;
77206;SDS011;66190;50.708;7.906;2022-12-20T01:10:56;24.85;;;11.45;;
77206;SDS011;66190;50.708;7.906;2022-12-20T01:13:49;25.10;;;11.23;;
77206;SDS011;66190;50.708;7.906;2022-12-20T01:16:24;23.45;;;10.35;;
77206;SDS011;66190;50.708;7.906;2022-12-20T01:18:52;22.38;;;11.30;;
77206;SDS011;66190;50.708;7.906;2022-12-20T01:21:19;25.35;;;11.70;;
77206;SDS011;66190;50.708;7.906;2022-12-20T01:23:46;26.00;;;11.93;;
77206;SDS011;66190;50.708;7.906;2022-12-20T01:26:13;26.83;;;11.82;;
77206;SDS011;66190;50.708;7.906;2022-12-20T01:28:41;27.90;;;12.35;;
77206;SDS011;66190;50.708;7.906;2022-12-20T01:31:09;24.33;;;12.75;;
77206;SDS011;66190;50.708;7.906;2022-12-20T01:33:36;26.73;;;12.05;;
77206;SDS011;66190;50.708;7.906;2022-12-20T01:36:03;25.63;;;12.68;;
77206;SDS011;66190;50.708;7.906;2022-12-20T01:38:31;24.30;;;11.43;;
77206;SDS011;66190;50.708;7.906;2022-12-20T01:40:57;23.38;;;12.27;;
77206;SDS011;66190;50.708;7.906;2022-12-20T01:43:24;23.77;;;11.00;;
77206;SDS011;66190;50.708;7.906;2022-12-20T01:45:50;24.80;;;11.85;;
77206;SDS011;66190;50.708;7.906;2022-12-20T01:48:17;25.67;;;11.77;;
77206;SDS011;66190;50.708;7.906;2022-12-20T01:50:47;26.95;;;11.77;;
77206;SDS011;66190;50.708;7.906;2022-12-20T01:53:14;23.67;;;10.57;;
77206;SDS011;66190;50.708;7.906;2022-12-20T01:55:42;23.95;;;10.98;;
77206;SDS011;66190;50.708;7.906;2022-12-20T01:58:09;24.10;;;10.85;;
77206;SDS011;66190;50.708;7.906;2022-12-20T02:00:37;25.15;;;11.15;;
77206;SDS011;66190;50.708;7.906;2022-12-20T02:03:06;26.35;;;11.40;;
77206;SDS011;66190;50.708;7.906;2022-12-20T02:05:37;23.08;;;11.13;;
77206;SDS011;66190;50.708;7.906;2022-12-20T02:08:04;24.08;;;11.32;;
77206;SDS011;66190;50.708;7.906;2022-12-20T02:13:20;23.45;;;10.63;;
77206;SDS011;66190;50.708;7.906;2022-12-20T02:15:55;19.88;;;9.85;;
77206;SDS011;66190;50.708;7.906;2022-12-20T02:26:25;21.77;;;9.75;;
77206;SDS011;66190;50.708;7.906;2022-12-20T02:32:16;21.77;;;9.52;;
77206;SDS011;66190;50.708;7.906;2022-12-20T02:34:50;22.60;;;10.73;;
77206;SDS011;66190;50.708;7.906;2022-12-20T02:37:16;22.70;;;9.88;;
77206;SDS011;66190;50.708;7.906;2022-12-20T02:39:42;19.60;;;10.30;;
77206;SDS011;66190;50.708;7.906;2022-12-20T02:42:11;21.17;;;10.05;;
77206;SDS011;66190;50.708;7.906;2022-12-20T02:44:46;21.52;;;9.68;;
77206;SDS011;66190;50.708;7.906;2022-12-20T02:47:36;19.33;;;9.23;;
77206;SDS011;66190;50.708;7.906;2022-12-20T02:50:10;22.03;;;10.17;;
77206;SDS011;66190;50.708;7.906;2022-12-20T02:52:36;21.63;;;10.05;;
77206;SDS011;66190;50.708;7.906;2022-12-20T02:55:04;20.23;;;10.32;;
77206;SDS011;66190;50.708;7.906;2022-12-20T02:57:54;19.63;;;9.05;;
77206;SDS011;66190;50.708;7.906;2022-12-20T03:00:26;21.17;;;9.88;;
77206;SDS011;66190;50.708;7.906;2022-12-20T03:02:58;23.87;;;10.27;;
77206;SDS011;66190;50.708;7.906;2022-12-20T03:05:44;24.00;;;10.50;;
77206;SDS011;66190;50.708;7.906;2022-12-20T03:08:12;22.58;;;10.30;;
77206;SDS011;66190;50.708;7.906;2022-12-20T03:10:37;24.33;;;10.60;;
77206;SDS011;66190;50.708;7.906;2022-12-20T03:13:03;22.70;;;9.88;;
77206;SDS011;66190;50.708;7.906;2022-12-20T03:15:29;19.10;;;9.80;;
77206;SDS011;66190;50.708;7.906;2022-12-20T03:17:54;22.45;;;10.52;;
77206;SDS011;66190;50.708;7.906;2022-12-20T03:20:20;21.07;;;9.73;;
77206;SDS011;66190;50.708;7.906;2022-12-20T03:22:45;18.67;;;9.02;;
77206;SDS011;66190;50.708;7.906;2022-12-20T03:25:11;22.85;;;10.57;;
77206;SDS011;66190;50.708;7.906;2022-12-20T03:27:37;23.00;;;9.90;;
77206;SDS011;66190;50.708;7.906;2022-12-20T03:30:03;22.27;;;9.95;;
77206;SDS011;66190;50.708;7.906;2022-12-20T03:32:29;23.38;;;10.02;;
77206;SDS011;66190;50.708;7.906;2022-12-20T03:34:55;23.50;;;10.97;;
77206;SDS011;66190;50.708;7.906;2022-12-20T03:37:21;19.92;;;9.80;;
77206;SDS011;66190;50.708;7.906;2022-12-20T03:39:46;19.43;;;9.27;;
77206;SDS011;66190;50.708;7.906;2022-12-20T03:42:12;23.55;;;11.05;;
77206;SDS011;66190;50.708;7.906;2022-12-20T03:44:38;20.03;;;9.67;;
77206;SDS011;66190;50.708;7.906;2022-12-20T03:47:03;22.00;;;10.55;;
77206;SDS011;66190;50.708;7.906;2022-12-20T03:49:29;18.90;;;9.50;;
77206;SDS011;66190;50.708;7.906;2022-12-20T03:51:55;22.90;;;9.55;;
77206;SDS011;66190;50.708;7.906;2022-12-20T03:54:21;21.87;;;9.70;;
77206;SDS011;66190;50.708;7.906;2022-12-20T03:56:46;18.90;;;9.55;;
77206;SDS011;66190;50.708;7.906;2022-12-20T03:59:12;21.07;;;9.30;;
77206;SDS011;66190;50.708;7.906;2022-12-20T04:01:38;19.58;;;9.38;;
77206;SDS011;66190;50.708;7.906;2022-12-20T04:04:04;16.15;;;8.40;;
77206;SDS011;66190;50.708;7.906;2022-12-20T04:06:31;18.02;;;7.97;;
77206;SDS011;66190;50.708;7.906;2022-12-20T04:08:57;17.87;;;8.20;;
77206;SDS011;66190;50.708;7.906;2022-12-20T04:11:22;16.77;;;8.17;;
77206;SDS011;66190;50.708;7.906;2022-12-20T04:13:49;17.17;;;7.95;;
77206;SDS011;66190;50.708;7.906;2022-12-20T04:16:17;18.52;;;8.10;;
77206;SDS011;66190;50.708;7.906;2022-12-20T04:18:47;15.77;;;7.57;;
77206;SDS011;66190;50.708;7.906;2022-12-20T04:21:13;18.63;;;8.50;;
77206;SDS011;66190;50.708;7.906;2022-12-20T04:23:41;17.02;;;8.13;;
77206;SDS011;66190;50.708;7.906;2022-12-20T04:26:07;16.10;;;8.40;;
77206;SDS011;66190;50.708;7.906;2022-12-20T04:28:34;16.13;;;8.50;;
77206;SDS011;66190;50.708;7.906;2022-12-20T04:31:00;16.08;;;8.40;;
77206;SDS011;66190;50.708;7.906;2022-12-20T04:33:27;20.00;;;9.32;;
77206;SDS011;66190;50.708;7.906;2022-12-20T04:35:53;16.88;;;8.32;;
77206;SDS011;66190;50.708;7.906;2022-12-20T04:38:19;17.77;;;8.90;;
77206;SDS011;66190;50.708;7.906;2022-12-20T04:40:49;19.40;;;8.93;;
77206;SDS011;66190;50.708;7.906;2022-12-20T04:43:17;20.95;;;9.63;;
77206;SDS011;66190;50.708;7.906;2022-12-20T04:45:43;18.90;;;9.32;;
77206;SDS011;66190;50.708;7.906;2022-12-20T04:48:09;18.17;;;8.77;;
77206;SDS011;66190;50.708;7.906;2022-12-20T04:50:35;18.25;;;9.52;;
77206;SDS011;66190;50.708;7.906;2022-12-20T04:53:01;18.48;;;8.98;;
77206;SDS011;66190;50.708;7.906;2022-12-20T04:55:45;21.23;;;9.73;;
77206;SDS011;66190;50.708;7.906;2022-12-20T04:58:10;21.17;;;9.98;;
77206;SDS011;66190;50.708;7.906;2022-12-20T05:00:36;22.07;;;10.43;;
77206;SDS011;66190;50.708;7.906;2022-12-20T05:03:02;23.83;;;11.27;;
77206;SDS011;66190;50.708;7.906;2022-12-20T05:05:28;21.02;;;10.35;;
77206;SDS011;66190;50.708;7.906;2022-12-20T05:07:54;23.07;;;11.33;;
77206;SDS011;66190;50.708;7.906;2022-12-20T05:10:20;23.08;;;11.40;;
77206;SDS011;66190;50.708;7.906;2022-12-20T05:12:45;25.50;;;11.30;;
77206;SDS011;66190;50.708;7.906;2022-12-20T05:15:11;22.75;;;10.23;;
77206;SDS011;66190;50.708;7.906;2022-12-20T05:17:37;20.67;;;10.50;;
77206;SDS011;66190;50.708;7.906;2022-12-20T05:20:03;22.40;;;11.05;;
77206;SDS011;66190;50.708;7.906;2022-12-20T05:22:30;21.05;;;10.93;;
77206;SDS011;66190;50.708;7.906;2022-12-20T05:25:14;23.80;;;11.97;;
77206;SDS011;66190;50.708;7.906;2022-12-20T05:27:58;22.67;;;11.52;;
77206;SDS011;66190;50.708;7.906;2022-12-20T05:30:24;20.45;;;10.82;;
77206;SDS011;66190;50.708;7.906;2022-12-20T05:32:50;22.33;;;11.97;;
77206;SDS011;66190;50.708;7.906;2022-12-20T05:35:16;23.23;;;11.45;;
77206;SDS011;66190;50.708;7.906;2022-12-20T05:37:41;21.93;;;10.70;;
77206;SDS011;66190;50.708;7.906;2022-12-20T05:40:07;22.95;;;11.13;;
77206;SDS011;66190;50.708;7.906;2022-12-20T05:42:34;25.00;;;11.70;;
77206;SDS011;66190;50.708;7.906;2022-12-20T05:44:59;25.73;;;11.50;;
77206;SDS011;66190;50.708;7.906;2022-12-20T05:47:25;23.77;;;11.10;;
77206;SDS011;66190;50.708;7.906;2022-12-20T05:49:51;25.40;;;11.07;;
77206;SDS011;66190;50.708;7.906;2022-12-20T05:52:17;23.33;;;11.37;;
77206;SDS011;66190;50.708;7.906;2022-12-20T05:54:43;21.50;;;10.57;;
77206;SDS011;66190;50.708;7.906;2022-12-20T05:57:09;24.77;;;11.55;;
77206;SDS011;66190;50.708;7.906;2022-12-20T05:59:34;21.60;;;10.73;;
77206;SDS011;66190;50.708;7.906;2022-12-20T06:02:00;22.83;;;10.63;;
77206;SDS011;66190;50.708;7.906;2022-12-20T06:04:25;23.85;;;11.55;;
77206;SDS011;66190;50.708;7.906;2022-12-20T06:06:51;23.97;;;11.40;;
77206;SDS011;66190;50.708;7.906;2022-12-20T06:09:17;21.00;;;10.07;;
77206;SDS011;66190;50.708;7.906;2022-12-20T06:11:43;21.03;;;10.43;;
77206;SDS011;66190;50.708;7.906;2022-12-20T06:14:08;22.00;;;10.63;;
77206;SDS011;66190;50.708;7.906;2022-12-20T06:16:34;22.00;;;10.93;;
77206;SDS011;66190;50.708;7.906;2022-12-20T06:19:00;22.88;;;11.57;;
77206;SDS011;66190;50.708;7.906;2022-12-20T06:21:26;22.77;;;10.70;;
77206;SDS011;66190;50.708;7.906;2022-12-20T06:23:52;23.17;;;11.45;;
77206;SDS011;66190;50.708;7.906;2022-12-20T06:26:19;24.95;;;11.52;;
77206;SDS011;66190;50.708;7.906;2022-12-20T06:28:47;22.65;;;10.80;;
77206;SDS011;66190;50.708;7.906;2022-12-20T06:31:16;22.50;;;11.07;;
77206;SDS011;66190;50.708;7.906;2022-12-20T06:33:43;22.73;;;10.85;;
77206;SDS011;66190;50.708;7.906;2022-12-20T06:36:08;22.85;;;11.18;;
77206;SDS011;66190;50.708;7.906;2022-12-20T06:38:34;23.13;;;10.80;;
77206;SDS011;66190;50.708;7.906;2022-12-20T06:41:00;23.88;;;10.68;;
77206;SDS011;66190;50.708;7.906;2022-12-20T06:43:26;23.25;;;10.65;;
77206;SDS011;66190;50.708;7.906;2022-12-20T06:45:53;20.02;;;10.77;;
77206;SDS011;66190;50.708;7.906;2022-12-20T06:48:18;22.83;;;10.98;;
77206;SDS011;66190;50.708;7.906;2022-12-20T06:50:47;21.05;;;9.90;;
77206;SDS011;66190;50.708;7.906;2022-12-20T06:53:13;21.33;;;10.55;;
77206;SDS011;66190;50.708;7.906;2022-12-20T06:55:39;20.17;;;10.37;;
77206;SDS011;66190;50.708;7.906;2022-12-20T06:58:05;21.45;;;10.43;;
77206;SDS011;66190;50.708;7.906;2022-12-20T07:00:31;18.53;;;10.10;;
77206;SDS011;66190;50.708;7.906;2022-12-20T07:02:57;19.83;;;9.65;;
77206;SDS011;66190;50.708;7.906;2022-12-20T07:05:22;20.58;;;10.05;;
77206;SDS011;66190;50.708;7.906;2022-12-20T07:07:48;21.60;;;9.63;;
77206;SDS011;66190;50.708;7.906;2022-12-20T07:10:14;17.27;;;9.10;;
77206;SDS011;66190;50.708;7.906;2022-12-20T07:12:40;17.70;;;8.67;;
77206;SDS011;66190;50.708;7.906;2022-12-20T07:15:06;18.17;;;9.02;;
77206;SDS011;66190;50.708;7.906;2022-12-20T07:17:32;18.33;;;9.50;;
77206;SDS011;66190;50.708;7.906;2022-12-20T07:19:58;20.98;;;9.10;;
77206;SDS011;66190;50.708;7.906;2022-12-20T07:22:24;18.00;;;9.40;;
77206;SDS011;66190;50.708;7.906;2022-12-20T07:24:50;18.70;;;8.88;;
77206;SDS011;66190;50.708;7.906;2022-12-20T07:27:15;18.87;;;8.83;;
77206;SDS011;66190;50.708;7.906;2022-12-20T07:29:41;18.73;;;9.32;;
77206;SDS011;66190;50.708;7.906;2022-12-20T07:32:07;20.17;;;9.83;;
77206;SDS011;66190;50.708;7.906;2022-12-20T07:34:34;32.35;;;13.98;;
77206;SDS011;66190;50.708;7.906;2022-12-20T07:37:01;21.08;;;10.48;;
77206;SDS011;66190;50.708;7.906;2022-12-20T07:39:26;18.83;;;9.17;;
77206;SDS011;66190;50.708;7.906;2022-12-20T07:41:55;14.25;;;8.00;;
77206;SDS011;66190;50.708;7.906;2022-12-20T07:44:22;16.20;;;8.40;;
77206;SDS011;66190;50.708;7.906;2022-12-20T07:46:48;17.17;;;9.20;;
77206;SDS011;66190;50.708;7.906;2022-12-20T07:49:14;15.73;;;7.32;;
77206;SDS011;66190;50.708;7.906;2022-12-20T07:51:43;14.77;;;7.17;;
77206;SDS011;66190;50.708;7.906;2022-12-20T07:54:12;16.27;;;8.32;;
77206;SDS011;66190;50.708;7.906;2022-12-20T07:56:43;17.98;;;8.23;;
77206;SDS011;66190;50.708;7.906;2022-12-20T07:59:12;16.60;;;7.90;;
77206;SDS011;66190;50.708;7.906;2022-12-20T08:01:40;17.35;;;7.25;;
77206;SDS011;66190;50.708;7.906;2022-12-20T08:04:10;16.50;;;8.33;;
77206;SDS011;66190;50.708;7.906;2022-12-20T08:06:39;13.77;;;7.55;;
77206;SDS011;66190;50.708;7.906;2022-12-20T08:09:06;16.33;;;8.07;;
77206;SDS011;66190;50.708;7.906;2022-12-20T08:11:36;16.35;;;8.18;;
77206;SDS011;66190;50.708;7.906;2022-12-20T08:14:03;18.52;;;9.88;;
77206;SDS011;66190;50.708;7.906;2022-12-20T08:16:30;19.63;;;9.00;;
77206;SDS011;66190;50.708;7.906;2022-12-20T08:18:56;19.77;;;9.57;;
77206;SDS011;66190;50.708;7.906;2022-12-20T08:21:22;18.30;;;8.43;;
77206;SDS011;66190;50.708;7.906;2022-12-20T08:23:47;15.82;;;7.60;;
77206;SDS011;66190;50.708;7.906;2022-12-20T08:26:13;14.33;;;7.80;;
77206;SDS011;66190;50.708;7.906;2022-12-20T08:28:39;16.25;;;8.18;;
77206;SDS011;66190;50.708;7.906;2022-12-20T08:31:05;15.18;;;7.97;;
77206;SDS011;66190;50.708;7.906;2022-12-20T08:33:32;16.95;;;7.75;;
77206;SDS011;66190;50.708;7.906;2022-12-20T08:36:00;16.48;;;7.95;;
77206;SDS011;66190;50.708;7.906;2022-12-20T08:38:30;17.42;;;8.02;;
77206;SDS011;66190;50.708;7.906;2022-12-20T08:41:02;17.20;;;7.93;;
77206;SDS011;66190;50.708;7.906;2022-12-20T08:43:34;15.00;;;7.82;;
77206;SDS011;66190;50.708;7.906;2022-12-20T08:46:01;16.55;;;8.05;;
77206;SDS011;66190;50.708;7.906;2022-12-20T08:48:27;15.10;;;7.77;;
77206;SDS011;66190;50.708;7.906;2022-12-20T08:50:56;13.90;;;7.90;;
77206;SDS011;66190;50.708;7.906;2022-12-20T08:53:25;14.75;;;6.72;;
77206;SDS011;66190;50.708;7.906;2022-12-20T08:55:50;14.10;;;7.70;;
77206;SDS011;66190;50.708;7.906;2022-12-20T08:58:17;15.15;;;7.90;;
77206;SDS011;66190;50.708;7.906;2022-12-20T09:00:42;12.30;;;6.90;;
77206;SDS011;66190;50.708;7.906;2022-12-20T09:03:08;15.27;;;7.80;;
77206;SDS011;66190;50.708;7.906;2022-12-20T09:05:35;13.07;;;6.88;;
77206;SDS011;66190;50.708;7.906;2022-12-20T09:08:07;17.23;;;7.40;;
77206;SDS011;66190;50.708;7.906;2022-12-20T09:10:32;13.93;;;6.33;;
77206;SDS011;66190;50.708;7.906;2022-12-20T09:12:58;14.35;;;6.22;;
77206;SDS011;66190;50.708;7.906;2022-12-20T09:15:24;14.47;;;6.97;;
77206;SDS011;66190;50.708;7.906;2022-12-20T09:17:51;13.63;;;6.30;;
77206;SDS011;66190;50.708;7.906;2022-12-20T09:20:17;13.27;;;6.82;;
77206;SDS011;66190;50.708;7.906;2022-12-20T09:22:43;13.60;;;6.13;;
77206;SDS011;66190;50.708;7.906;2022-12-20T09:25:08;13.73;;;6.60;;
77206;SDS011;66190;50.708;7.906;2022-12-20T09:27:34;13.00;;;6.03;;
77206;SDS011;66190;50.708;7.906;2022-12-20T09:30:00;12.63;;;6.38;;
77206;SDS011;66190;50.708;7.906;2022-12-20T09:32:25;13.90;;;6.00;;
77206;SDS011;66190;50.708;7.906;2022-12-20T09:34:51;13.03;;;6.03;;
77206;SDS011;66190;50.708;7.906;2022-12-20T09:37:17;13.00;;;6.68;;
77206;SDS011;66190;50.708;7.906;2022-12-20T09:39:42;13.13;;;7.00;;
77206;SDS011;66190;50.708;7.906;2022-12-20T09:42:08;13.20;;;7.03;;
77206;SDS011;66190;50.708;7.906;2022-12-20T09:44:35;13.83;;;7.13;;
77206;SDS011;66190;50.708;7.906;2022-12-20T09:47:05;13.45;;;7.30;;
77206;SDS011;66190;50.708;7.906;2022-12-20T09:49:38;11.57;;;6.20;;
77206;SDS011;66190;50.708;7.906;2022-12-20T09:56:21;15.63;;;7.33;;
77206;SDS011;66190;50.708;7.906;2022-12-20T10:01:23;14.05;;;6.10;;
77206;SDS011;66190;50.708;7.906;2022-12-20T10:03:51;13.13;;;6.45;;
77206;SDS011;66190;50.708;7.906;2022-12-20T10:12:03;13.85;;;6.72;;
77206;SDS011;66190;50.708;7.906;2022-12-20T10:17:15;12.97;;;6.03;;
77206;SDS011;66190;50.708;7.906;2022-12-20T10:19:53;11.38;;;6.22;;
77206;SDS011;66190;50.708;7.906;2022-12-20T10:22:36;13.38;;;6.80;;
77206;SDS011;66190;50.708;7.906;2022-12-20T10:25:21;12.57;;;6.18;;
77206;SDS011;66190;50.708;7.906;2022-12-20T10:27:53;12.82;;;6.00;;
77206;SDS011;66190;50.708;7.906;2022-12-20T10:30:22;13.40;;;5.57;;
77206;SDS011;66190;50.708;7.906;2022-12-20T10:32:53;13.20;;;5.72;;
77206;SDS011;66190;50.708;7.906;2022-12-20T10:35:23;12.60;;;6.10;;
77206;SDS011;66190;50.708;7.906;2022-12-20T10:38:01;13.20;;;6.20;;
77206;SDS011;66190;50.708;7.906;2022-12-20T10:40:33;14.05;;;5.65;;
77206;SDS011;66190;50.708;7.906;2022-12-20T10:43:22;12.15;;;5.72;;
77206;SDS011;66190;50.708;7.906;2022-12-20T10:48:43;11.73;;;5.65;;
77206;SDS011;66190;50.708;7.906;2022-12-20T10:53:34;15.20;;;6.63;;
77206;SDS011;66190;50.708;7.906;2022-12-20T10:58:58;12.18;;;5.07;;
77206;SDS011;66190;50.708;7.906;2022-12-20T11:01:35;12.75;;;5.65;;
77206;SDS011;66190;50.708;7.906;2022-12-20T11:04:20;14.77;;;6.20;;
77206;SDS011;66190;50.708;7.906;2022-12-20T11:06:57;11.38;;;5.75;;
77206;SDS011;66190;50.708;7.906;2022-12-20T11:09:26;10.60;;;5.32;;
77206;SDS011;66190;50.708;7.906;2022-12-20T11:12:08;12.30;;;5.55;;
77206;SDS011;66190;50.708;7.906;2022-12-20T11:14:44;11.50;;;5.72;;
77206;SDS011;66190;50.708;7.906;2022-12-20T11:30:39;11.13;;;4.87;;
77206;SDS011;66190;50.708;7.906;2022-12-20T11:36:26;12.07;;;4.93;;
77206;SDS011;66190;50.708;7.906;2022-12-20T11:44:25;10.77;;;5.47;;
77206;SDS011;66190;50.708;7.906;2022-12-20T11:49:50;10.65;;;4.85;;
77206;SDS011;66190;50.708;7.906;2022-12-20T11:52:49;9.25;;;4.45;;
77206;SDS011;66190;50.708;7.906;2022-12-20T11:55:24;10.27;;;4.40;;
77206;SDS011;66190;50.708;7.906;2022-12-20T11:58:02;10.60;;;4.35;;
77206;SDS011;66190;50.708;7.906;2022-12-20T12:00:35;9.02;;;4.28;;
77206;SDS011;66190;50.708;7.906;2022-12-20T12:06:04;9.10;;;4.15;;
77206;SDS011;66190;50.708;7.906;2022-12-20T12:08:46;8.00;;;3.70;;
77206;SDS011;66190;50.708;7.906;2022-12-20T12:11:16;8.80;;;4.13;;
77206;SDS011;66190;50.708;7.906;2022-12-20T12:13:45;10.48;;;4.13;;
77206;SDS011;66190;50.708;7.906;2022-12-20T12:16:17;8.82;;;3.75;;
77206;SDS011;66190;50.708;7.906;2022-12-20T12:18:48;10.93;;;4.40;;
77206;SDS011;66190;50.708;7.906;2022-12-20T12:21:24;11.07;;;4.93;;
77206;SDS011;66190;50.708;7.906;2022-12-20T12:24:00;11.80;;;5.15;;
77206;SDS011;66190;50.708;7.906;2022-12-20T12:26:46;10.82;;;4.40;;
77206;SDS011;66190;50.708;7.906;2022-12-20T12:29:14;11.93;;;4.60;;
77206;SDS011;66190;50.708;7.906;2022-12-20T12:34:40;9.32;;;4.10;;
77206;SDS011;66190;50.708;7.906;2022-12-20T12:45:25;9.93;;;3.75;;
77206;SDS011;66190;50.708;7.906;2022-12-20T12:48:00;8.57;;;3.78;;
77206;SDS011;66190;50.708;7.906;2022-12-20T12:50:35;11.05;;;4.35;;
77206;SDS011;66190;50.708;7.906;2022-12-20T12:53:13;8.48;;;3.85;;
77206;SDS011;66190;50.708;7.906;2022-12-20T12:55:52;9.50;;;4.43;;
77206;SDS011;66190;50.708;7.906;2022-12-20T13:03:14;9.55;;;4.40;;
77206;SDS011;66190;50.708;7.906;2022-12-20T13:05:41;9.57;;;4.17;;
77206;SDS011;66190;50.708;7.906;2022-12-20T13:08:24;9.13;;;4.38;;
77206;SDS011;66190;50.708;7.906;2022-12-20T13:11:11;10.07;;;4.30;;
77206;SDS011;66190;50.708;7.906;2022-12-20T13:14:09;9.18;;;4.32;;
77206;SDS011;66190;50.708;7.906;2022-12-20T13:16:38;8.67;;;3.93;;
77206;SDS011;66190;50.708;7.906;2022-12-20T13:19:15;10.05;;;4.07;;
77206;SDS011;66190;50.708;7.906;2022-12-20T13:21:52;8.82;;;4.05;;
77206;SDS011;66190;50.708;7.906;2022-12-20T13:27:01;11.73;;;4.15;;
77206;SDS011;66190;50.708;7.906;2022-12-20T13:29:34;8.77;;;4.10;;
77206;SDS011;66190;50.708;7.906;2022-12-20T13:32:01;8.70;;;3.85;;
77206;SDS011;66190;50.708;7.906;2022-12-20T13:34:52;8.00;;;4.40;;
77206;SDS011;66190;50.708;7.906;2022-12-20T13:37:26;7.07;;;3.03;;
77206;SDS011;66190;50.708;7.906;2022-12-20T13:39:53;10.32;;;3.90;;
77206;SDS011;66190;50.708;7.906;2022-12-20T13:42:26;8.53;;;3.67;;
77206;SDS011;66190;50.708;7.906;2022-12-20T13:45:00;9.00;;;3.75;;
77206;SDS011;66190;50.708;7.906;2022-12-20T13:47:30;9.07;;;3.70;;
77206;SDS011;66190;50.708;7.906;2022-12-20T13:50:11;7.75;;;3.45;;
77206;SDS011;66190;50.708;7.906;2022-12-20T13:52:51;8.48;;;3.45;;
77206;SDS011;66190;50.708;7.906;2022-12-20T13:55:26;8.40;;;3.17;;
77206;SDS011;66190;50.708;7.906;2022-12-20T13:58:02;8.30;;;3.17;;
77206;SDS011;66190;50.708;7.906;2022-12-20T14:00:46;8.90;;;3.33;;
77206;SDS011;66190;50.708;7.906;2022-12-20T14:03:19;9.70;;;3.25;;
77206;SDS011;66190;50.708;7.906;2022-12-20T14:05:47;7.43;;;3.25;;
77206;SDS011;66190;50.708;7.906;2022-12-20T14:08:17;8.43;;;3.17;;
77206;SDS011;66190;50.708;7.906;2022-12-20T14:10:46;8.88;;;3.38;;
77206;SDS011;66190;50.708;7.906;2022-12-20T14:13:17;9.18;;;3.90;;
77206;SDS011;66190;50.708;7.906;2022-12-20T14:15:45;7.93;;;3.55;;
77206;SDS011;66190;50.708;7.906;2022-12-20T14:18:19;9.77;;;3.40;;
77206;SDS011;66190;50.708;7.906;2022-12-20T14:20:47;10.82;;;4.10;;
77206;SDS011;66190;50.708;7.906;2022-12-20T14:23:27;8.93;;;3.72;;
77206;SDS011;66190;50.708;7.906;2022-12-20T14:26:02;8.98;;;3.70;;
77206;SDS011;66190;50.708;7.906;2022-12-20T14:28:36;8.50;;;3.80;;
77206;SDS011;66190;50.708;7.906;2022-12-20T14:31:21;7.60;;;3.30;;
77206;SDS011;66190;50.708;7.906;2022-12-20T14:36:34;10.13;;;3.67;;
77206;SDS011;66190;50.708;7.906;2022-12-20T14:41:59;8.65;;;3.60;;
77206;SDS011;66190;50.708;7.906;2022-12-20T14:44:31;8.30;;;3.03;;
77206;SDS011;66190;50.708;7.906;2022-12-20T14:46:59;7.78;;;3.70;;
77206;SDS011;66190;50.708;7.906;2022-12-20T14:49:56;10.20;;;3.22;;
77206;SDS011;66190;50.708;7.906;2022-12-20T14:55:01;10.05;;;3.85;;
77206;SDS011;66190;50.708;7.906;2022-12-20T15:16:03;8.43;;;4.30;;
77206;SDS011;66190;50.708;7.906;2022-12-20T15:18:36;9.40;;;3.70;;
77206;SDS011;66190;50.708;7.906;2022-12-20T15:23:30;9.57;;;4.28;;
77206;SDS011;66190;50.708;7.906;2022-12-20T15:25:56;9.10;;;3.58;;
77206;SDS011;66190;50.708;7.906;2022-12-20T15:28:23;9.37;;;3.97;;
77206;SDS011;66190;50.708;7.906;2022-12-20T15:30:50;8.65;;;4.05;;
77206;SDS011;66190;50.708;7.906;2022-12-20T15:35:50;8.52;;;4.10;;
77206;SDS011;66190;50.708;7.906;2022-12-20T15:38:17;9.70;;;4.07;;
77206;SDS011;66190;50.708;7.906;2022-12-20T15:40:46;9.90;;;4.10;;
77206;SDS011;66190;50.708;7.906;2022-12-20T15:43:15;11.38;;;4.43;;
77206;SDS011;66190;50.708;7.906;2022-12-20T15:45:43;9.85;;;4.45;;
77206;SDS011;66190;50.708;7.906;2022-12-20T15:48:12;9.27;;;4.03;;
77206;SDS011;66190;50.708;7.906;2022-12-20T15:50:39;9.88;;;4.38;;
77206;SDS011;66190;50.708;7.906;2022-12-20T15:53:09;10.85;;;3.97;;
77206;SDS011;66190;50.708;7.906;2022-12-20T15:55:38;9.73;;;4.13;;
77206;SDS011;66190;50.708;7.906;2022-12-20T15:58:04;9.88;;;4.13;;
77206;SDS011;66190;50.708;7.906;2022-12-20T16:00:29;11.43;;;4.60;;
77206;SDS011;66190;50.708;7.906;2022-12-20T16:02:55;8.77;;;4.80;;
77206;SDS011;66190;50.708;7.906;2022-12-20T16:05:23;9.27;;;4.18;;
77206;SDS011;66190;50.708;7.906;2022-12-20T16:07:48;8.45;;;4.05;;
77206;SDS011;66190;50.708;7.906;2022-12-20T16:10:14;8.25;;;3.92;;
77206;SDS011;66190;50.708;7.906;2022-12-20T16:12:40;9.80;;;4.07;;
77206;SDS011;66190;50.708;7.906;2022-12-20T16:15:13;11.23;;;4.38;;
77206;SDS011;66190;50.708;7.906;2022-12-20T16:17:44;10.73;;;4.80;;
77206;SDS011;66190;50.708;7.906;2022-12-20T16:20:10;10.30;;;4.47;;
77206;SDS011;66190;50.708;7.906;2022-12-20T16:22:36;11.07;;;4.70;;
77206;SDS011;66190;50.708;7.906;2022-12-20T16:25:02;10.30;;;4.43;;
77206;SDS011;66190;50.708;7.906;2022-12-20T16:27:27;10.15;;;4.78;;
77206;SDS011;66190;50.708;7.906;2022-12-20T16:29:53;9.98;;;3.88;;
77206;SDS011;66190;50.708;7.906;2022-12-20T16:32:19;9.30;;;3.60;;
77206;SDS011;66190;50.708;7.906;2022-12-20T16:34:48;8.48;;;4.00;;
77206;SDS011;66190;50.708;7.906;2022-12-20T16:37:14;8.23;;;4.00;;
77206;SDS011;66190;50.708;7.906;2022-12-20T16:39:41;10.45;;;4.40;;
77206;SDS011;66190;50.708;7.906;2022-12-20T16:42:12;8.95;;;4.18;;